< < Back
Terminal Aerodrome Forecast


Current Version              Previous Versions:   1  2  3  4  5  6  7  8  9  

Terminal Aerodrome Forecast

751
FTUS42 KCAE 302300
TAFCAE
TAF
KCAE 302322Z 3100/3124 04004KT P6SM SKC
     FM311800 VRB05KT P6SM SCT050=



Latest METAR

287
SAUS80 KWBC 310000 RRA
MTRCAE
METAR KCAE 302356Z 36004KT 10SM CLR 18/06 A2995 RMK AO2 SLP142 T01780061
10228 20178 50004


USA.gov is the U.S. government's official web portal to all federal, state and local government web resources and services.